sensor_id;sensor_type;location;lat;lon;timestamp;pressure;altitude;pressure_sealevel;temperature;humidity
45323;BME280;31382;50.200;8.674;2023-02-20T00:03:28;101385.41;;;10.62;58.74
45323;BME280;31382;50.200;8.674;2023-02-20T00:08:31;101387.75;;;10.75;58.57
45323;BME280;31382;50.200;8.674;2023-02-20T00:13:32;101387.91;;;10.74;58.64
45323;BME280;31382;50.200;8.674;2023-02-20T00:18:34;101376.31;;;10.73;58.95
45323;BME280;31382;50.200;8.674;2023-02-20T00:23:35;101389.13;;;10.61;59.40
45323;BME280;31382;50.200;8.674;2023-02-20T00:28:41;101374.47;;;10.46;59.88
45323;BME280;31382;50.200;8.674;2023-02-20T00:33:43;101373.84;;;10.34;60.27
45323;BME280;31382;50.200;8.674;2023-02-20T00:38:45;101370.72;;;10.29;60.28
45323;BME280;31382;50.200;8.674;2023-02-20T00:43:46;101381.94;;;10.15;60.68
45323;BME280;31382;50.200;8.674;2023-02-20T00:48:48;101381.25;;;10.12;60.90
45323;BME280;31382;50.200;8.674;2023-02-20T00:53:51;101385.69;;;10.04;61.12
45323;BME280;31382;50.200;8.674;2023-02-20T00:58:53;101371.25;;;10.05;61.09
45323;BME280;31382;50.200;8.674;2023-02-20T01:03:54;101375.22;;;10.01;61.05
45323;BME280;31382;50.200;8.674;2023-02-20T01:08:56;101371.34;;;9.85;61.65
45323;BME280;31382;50.200;8.674;2023-02-20T01:13:57;101373.59;;;9.80;61.78
45323;BME280;31382;50.200;8.674;2023-02-20T01:18:58;101372.06;;;9.78;62.08
45323;BME280;31382;50.200;8.674;2023-02-20T01:24:00;101373.63;;;9.70;62.67
45323;BME280;31382;50.200;8.674;2023-02-20T01:29:02;101365.44;;;9.72;62.96
45323;BME280;31382;50.200;8.674;2023-02-20T01:34:04;101356.69;;;9.70;63.56
45323;BME280;31382;50.200;8.674;2023-02-20T01:39:05;101355.06;;;9.77;63.44
45323;BME280;31382;50.200;8.674;2023-02-20T01:44:16;101360.44;;;9.77;63.63
45323;BME280;31382;50.200;8.674;2023-02-20T01:49:22;101350.97;;;9.83;63.33
45323;BME280;31382;50.200;8.674;2023-02-20T01:54:26;101340.81;;;9.77;63.49
45323;BME280;31382;50.200;8.674;2023-02-20T01:59:31;101341.38;;;9.80;63.28
45323;BME280;31382;50.200;8.674;2023-02-20T02:04:34;101323.97;;;9.84;63.32
45323;BME280;31382;50.200;8.674;2023-02-20T02:09:45;101323.28;;;9.82;62.99
45323;BME280;31382;50.200;8.674;2023-02-20T02:14:49;101313.50;;;9.81;63.00
45323;BME280;31382;50.200;8.674;2023-02-20T02:20:11;101296.72;;;9.79;63.10
45323;BME280;31382;50.200;8.674;2023-02-20T02:25:28;101314.97;;;9.76;63.07
45323;BME280;31382;50.200;8.674;2023-02-20T02:31:08;101316.06;;;9.83;63.05
45323;BME280;31382;50.200;8.674;2023-02-20T02:41:41;101311.38;;;9.85;63.00
45323;BME280;31382;50.200;8.674;2023-02-20T02:46:54;101306.31;;;9.82;62.96
45323;BME280;31382;50.200;8.674;2023-02-20T02:51:57;101300.38;;;9.88;62.64
45323;BME280;31382;50.200;8.674;2023-02-20T02:57:22;101300.25;;;9.80;62.76
45323;BME280;31382;50.200;8.674;2023-02-20T03:02:31;101295.03;;;9.78;62.85
45323;BME280;31382;50.200;8.674;2023-02-20T03:07:36;101294.63;;;9.73;63.25
45323;BME280;31382;50.200;8.674;2023-02-20T03:12:41;101289.38;;;9.71;62.94
45323;BME280;31382;50.200;8.674;2023-02-20T03:17:58;101289.69;;;9.68;62.97
45323;BME280;31382;50.200;8.674;2023-02-20T03:23:03;101295.09;;;9.59;63.41
45323;BME280;31382;50.200;8.674;2023-02-20T03:33:35;101298.75;;;9.58;63.67
45323;BME280;31382;50.200;8.674;2023-02-20T03:39:01;101306.44;;;9.43;63.63
45323;BME280;31382;50.200;8.674;2023-02-20T03:44:23;101321.41;;;9.36;63.70
45323;BME280;31382;50.200;8.674;2023-02-20T03:49:34;101315.09;;;9.27;63.82
45323;BME280;31382;50.200;8.674;2023-02-20T03:54:38;101310.88;;;9.24;64.04
45323;BME280;31382;50.200;8.674;2023-02-20T03:59:48;101323.13;;;9.27;63.87
45323;BME280;31382;50.200;8.674;2023-02-20T04:04:52;101304.34;;;9.27;64.17
45323;BME280;31382;50.200;8.674;2023-02-20T04:09:58;101295.75;;;9.23;64.14
45323;BME280;31382;50.200;8.674;2023-02-20T04:15:03;101284.06;;;9.15;64.22
45323;BME280;31382;50.200;8.674;2023-02-20T04:20:05;101289.56;;;9.13;64.41
45323;BME280;31382;50.200;8.674;2023-02-20T04:25:38;101295.06;;;9.11;64.32
45323;BME280;31382;50.200;8.674;2023-02-20T04:30:41;101309.59;;;9.09;64.07
45323;BME280;31382;50.200;8.674;2023-02-20T04:35:42;101301.56;;;8.99;64.37
45323;BME280;31382;50.200;8.674;2023-02-20T04:40:44;101305.78;;;8.92;64.30
45323;BME280;31382;50.200;8.674;2023-02-20T04:45:45;101303.94;;;8.92;64.46
45323;BME280;31382;50.200;8.674;2023-02-20T04:50:46;101303.09;;;8.82;64.86
45323;BME280;31382;50.200;8.674;2023-02-20T04:55:48;101293.38;;;8.71;64.72
45323;BME280;31382;50.200;8.674;2023-02-20T05:00:49;101293.78;;;8.77;64.63
45323;BME280;31382;50.200;8.674;2023-02-20T05:05:50;101298.44;;;8.74;64.39
45323;BME280;31382;50.200;8.674;2023-02-20T05:10:52;101286.31;;;8.70;64.19
45323;BME280;31382;50.200;8.674;2023-02-20T05:15:53;101281.38;;;8.66;64.42
45323;BME280;31382;50.200;8.674;2023-02-20T05:20:55;101290.41;;;8.55;64.93
45323;BME280;31382;50.200;8.674;2023-02-20T05:26:18;101292.53;;;8.51;65.01
45323;BME280;31382;50.200;8.674;2023-02-20T05:31:20;101296.75;;;8.44;64.92
45323;BME280;31382;50.200;8.674;2023-02-20T05:36:22;101303.44;;;8.29;65.33
45323;BME280;31382;50.200;8.674;2023-02-20T05:41:23;101288.47;;;8.17;65.86
45323;BME280;31382;50.200;8.674;2023-02-20T05:46:25;101279.28;;;8.09;65.97
45323;BME280;31382;50.200;8.674;2023-02-20T05:51:28;101290.84;;;8.10;65.97
45323;BME280;31382;50.200;8.674;2023-02-20T05:56:29;101291.09;;;7.97;66.88
45323;BME280;31382;50.200;8.674;2023-02-20T06:01:33;101283.34;;;7.94;66.77
45323;BME280;31382;50.200;8.674;2023-02-20T06:06:39;101280.34;;;7.87;67.19
45323;BME280;31382;50.200;8.674;2023-02-20T06:11:41;101263.69;;;7.84;67.10
45323;BME280;31382;50.200;8.674;2023-02-20T06:16:47;101248.94;;;7.89;67.22
45323;BME280;31382;50.200;8.674;2023-02-20T06:21:50;101252.16;;;7.83;67.09
45323;BME280;31382;50.200;8.674;2023-02-20T06:26:54;101239.59;;;7.84;66.92
45323;BME280;31382;50.200;8.674;2023-02-20T06:31:58;101259.38;;;7.92;67.21
45323;BME280;31382;50.200;8.674;2023-02-20T06:37:01;101248.22;;;7.87;67.73
45323;BME280;31382;50.200;8.674;2023-02-20T06:42:06;101259.06;;;7.86;68.00
45323;BME280;31382;50.200;8.674;2023-02-20T06:47:07;101270.75;;;7.85;68.46
45323;BME280;31382;50.200;8.674;2023-02-20T06:52:11;101264.28;;;7.87;68.10
45323;BME280;31382;50.200;8.674;2023-02-20T06:57:13;101265.16;;;7.98;68.24
45323;BME280;31382;50.200;8.674;2023-02-20T07:02:16;101276.16;;;7.94;68.53
45323;BME280;31382;50.200;8.674;2023-02-20T07:07:17;101271.75;;;7.93;68.24
45323;BME280;31382;50.200;8.674;2023-02-20T07:12:19;101271.94;;;7.92;68.58
45323;BME280;31382;50.200;8.674;2023-02-20T07:17:20;101272.78;;;8.02;67.91
45323;BME280;31382;50.200;8.674;2023-02-20T07:22:22;101269.81;;;7.95;68.69
45323;BME280;31382;50.200;8.674;2023-02-20T07:27:23;101264.59;;;7.94;69.12
45323;BME280;31382;50.200;8.674;2023-02-20T07:32:24;101252.06;;;7.94;68.56
45323;BME280;31382;50.200;8.674;2023-02-20T07:37:26;101267.44;;;8.02;69.36
45323;BME280;31382;50.200;8.674;2023-02-20T07:42:27;101247.44;;;8.06;68.93
45323;BME280;31382;50.200;8.674;2023-02-20T07:47:28;101249.13;;;8.07;69.44
45323;BME280;31382;50.200;8.674;2023-02-20T07:52:30;101245.19;;;8.21;69.20
45323;BME280;31382;50.200;8.674;2023-02-20T07:57:33;101238.59;;;8.35;68.62
45323;BME280;31382;50.200;8.674;2023-02-20T08:02:35;101240.88;;;8.40;69.15
45323;BME280;31382;50.200;8.674;2023-02-20T08:07:37;101233.84;;;8.48;69.38
45323;BME280;31382;50.200;8.674;2023-02-20T08:12:39;101224.84;;;8.49;68.81
45323;BME280;31382;50.200;8.674;2023-02-20T08:17:40;101221.44;;;8.67;68.59
45323;BME280;31382;50.200;8.674;2023-02-20T08:22:48;101224.66;;;8.70;68.72
45323;BME280;31382;50.200;8.674;2023-02-20T08:27:50;101212.53;;;8.86;68.77
45323;BME280;31382;50.200;8.674;2023-02-20T08:32:53;101205.72;;;9.01;68.41
45323;BME280;31382;50.200;8.674;2023-02-20T08:37:55;101211.63;;;9.15;68.46
45323;BME280;31382;50.200;8.674;2023-02-20T08:42:56;101207.94;;;9.16;67.80
45323;BME280;31382;50.200;8.674;2023-02-20T08:47:58;101214.44;;;9.23;67.83
45323;BME280;31382;50.200;8.674;2023-02-20T08:53:01;101212.44;;;9.25;67.80
45323;BME280;31382;50.200;8.674;2023-02-20T08:58:03;101207.03;;;9.35;68.04
45323;BME280;31382;50.200;8.674;2023-02-20T09:03:04;101204.00;;;9.47;67.74
45323;BME280;31382;50.200;8.674;2023-02-20T09:08:09;101210.44;;;9.64;67.56
45323;BME280;31382;50.200;8.674;2023-02-20T09:13:10;101211.75;;;9.88;67.16
45323;BME280;31382;50.200;8.674;2023-02-20T09:18:13;101211.63;;;10.07;66.83
45323;BME280;31382;50.200;8.674;2023-02-20T09:23:14;101219.63;;;10.17;66.75
45323;BME280;31382;50.200;8.674;2023-02-20T09:28:16;101222.13;;;10.19;66.87
45323;BME280;31382;50.200;8.674;2023-02-20T09:33:17;101226.47;;;10.29;66.92
45323;BME280;31382;50.200;8.674;2023-02-20T09:38:18;101222.44;;;10.43;66.60
45323;BME280;31382;50.200;8.674;2023-02-20T09:43:29;101216.41;;;10.67;66.51
45323;BME280;31382;50.200;8.674;2023-02-20T09:48:45;101207.38;;;10.68;66.54
45323;BME280;31382;50.200;8.674;2023-02-20T09:54:34;101201.84;;;10.96;65.84
45323;BME280;31382;50.200;8.674;2023-02-20T09:59:32;101210.28;;;11.01;65.91
45323;BME280;31382;50.200;8.674;2023-02-20T10:04:39;101203.53;;;11.23;65.54
45323;BME280;31382;50.200;8.674;2023-02-20T10:10:06;101184.38;;;11.26;65.42
45323;BME280;31382;50.200;8.674;2023-02-20T10:20:33;101190.56;;;11.53;64.27
45323;BME280;31382;50.200;8.674;2023-02-20T10:25:43;101182.56;;;11.69;64.07
45323;BME280;31382;50.200;8.674;2023-02-20T10:30:56;101174.66;;;11.76;63.62
45323;BME280;31382;50.200;8.674;2023-02-20T10:36:07;101171.47;;;11.81;63.23
45323;BME280;31382;50.200;8.674;2023-02-20T10:41:38;101153.72;;;12.04;62.93
45323;BME280;31382;50.200;8.674;2023-02-20T10:47:05;101148.69;;;12.09;62.28
45323;BME280;31382;50.200;8.674;2023-02-20T10:52:12;101136.06;;;12.26;61.54
45323;BME280;31382;50.200;8.674;2023-02-20T10:57:43;101127.47;;;12.64;60.64
45323;BME280;31382;50.200;8.674;2023-02-20T11:03:00;101126.41;;;12.73;60.52
45323;BME280;31382;50.200;8.674;2023-02-20T11:08:04;101118.66;;;12.86;59.90
45323;BME280;31382;50.200;8.674;2023-02-20T11:13:14;101100.03;;;13.08;59.00
45323;BME280;31382;50.200;8.674;2023-02-20T11:18:24;101093.56;;;13.34;58.87
45323;BME280;31382;50.200;8.674;2023-02-20T11:23:41;101086.06;;;13.44;57.64
45323;BME280;31382;50.200;8.674;2023-02-20T11:28:42;101074.06;;;13.46;57.08
45323;BME280;31382;50.200;8.674;2023-02-20T11:33:45;101062.47;;;13.69;56.68
45323;BME280;31382;50.200;8.674;2023-02-20T11:38:56;101056.78;;;13.87;56.12
45323;BME280;31382;50.200;8.674;2023-02-20T11:49:09;101051.63;;;14.15;54.89
45323;BME280;31382;50.200;8.674;2023-02-20T11:59:36;101043.75;;;14.43;53.44
45323;BME280;31382;50.200;8.674;2023-02-20T12:04:38;101031.66;;;14.54;52.80
45323;BME280;31382;50.200;8.674;2023-02-20T12:09:39;101016.19;;;14.63;52.23
45323;BME280;31382;50.200;8.674;2023-02-20T12:14:42;101019.09;;;14.76;51.70
45323;BME280;31382;50.200;8.674;2023-02-20T12:20:02;101006.50;;;14.83;51.27
45323;BME280;31382;50.200;8.674;2023-02-20T12:36:17;100990.56;;;15.25;50.19
45323;BME280;31382;50.200;8.674;2023-02-20T12:47:03;100967.63;;;15.64;48.91
45323;BME280;31382;50.200;8.674;2023-02-20T12:58:09;100938.81;;;15.78;48.43
45323;BME280;31382;50.200;8.674;2023-02-20T13:03:14;100931.97;;;15.82;47.89
45323;BME280;31382;50.200;8.674;2023-02-20T13:08:21;100925.25;;;16.06;47.28
45323;BME280;31382;50.200;8.674;2023-02-20T13:13:32;100902.41;;;16.22;47.13
45323;BME280;31382;50.200;8.674;2023-02-20T13:18:50;100901.78;;;16.26;47.18
45323;BME280;31382;50.200;8.674;2023-02-20T13:24:11;100878.38;;;16.19;46.87
45323;BME280;31382;50.200;8.674;2023-02-20T13:29:27;100872.75;;;16.20;46.46
45323;BME280;31382;50.200;8.674;2023-02-20T13:34:37;100861.09;;;16.26;46.05
45323;BME280;31382;50.200;8.674;2023-02-20T13:39:40;100860.06;;;16.28;45.74
45323;BME280;31382;50.200;8.674;2023-02-20T13:44:43;100847.59;;;16.33;45.14
45323;BME280;31382;50.200;8.674;2023-02-20T13:54:48;100824.31;;;16.59;44.35
45323;BME280;31382;50.200;8.674;2023-02-20T13:59:51;100822.66;;;16.71;43.83
45323;BME280;31382;50.200;8.674;2023-02-20T14:05:00;100812.00;;;16.76;43.73
45323;BME280;31382;50.200;8.674;2023-02-20T14:10:06;100790.91;;;16.65;43.73
45323;BME280;31382;50.200;8.674;2023-02-20T14:15:14;100804.25;;;16.60;43.81
45323;BME280;31382;50.200;8.674;2023-02-20T14:20:26;100804.44;;;16.58;43.56
45323;BME280;31382;50.200;8.674;2023-02-20T14:25:28;100803.44;;;16.66;43.88
45323;BME280;31382;50.200;8.674;2023-02-20T14:30:29;100804.06;;;16.61;43.69
45323;BME280;31382;50.200;8.674;2023-02-20T14:35:54;100780.63;;;16.47;43.13
45323;BME280;31382;50.200;8.674;2023-02-20T14:40:58;100774.59;;;16.52;43.20
45323;BME280;31382;50.200;8.674;2023-02-20T14:46:06;100768.53;;;16.56;43.06
45323;BME280;31382;50.200;8.674;2023-02-20T14:51:20;100752.88;;;16.52;43.09
45323;BME280;31382;50.200;8.674;2023-02-20T14:56:22;100750.59;;;16.62;43.57
45323;BME280;31382;50.200;8.674;2023-02-20T15:06:29;100760.25;;;16.98;43.17
45323;BME280;31382;50.200;8.674;2023-02-20T15:11:31;100766.94;;;17.02;43.13
45323;BME280;31382;50.200;8.674;2023-02-20T15:16:33;100768.66;;;17.16;43.28
45323;BME280;31382;50.200;8.674;2023-02-20T15:21:40;100750.03;;;17.27;43.12
45323;BME280;31382;50.200;8.674;2023-02-20T15:26:42;100755.03;;;17.43;42.80
45323;BME280;31382;50.200;8.674;2023-02-20T15:32:05;100747.94;;;17.42;42.76
45323;BME280;31382;50.200;8.674;2023-02-20T15:37:17;100763.00;;;17.11;43.58
45323;BME280;31382;50.200;8.674;2023-02-20T15:42:25;100770.94;;;17.33;43.29
45323;BME280;31382;50.200;8.674;2023-02-20T15:47:26;100757.16;;;17.21;43.57
45323;BME280;31382;50.200;8.674;2023-02-20T15:52:27;100770.91;;;17.06;43.63
45323;BME280;31382;50.200;8.674;2023-02-20T15:57:30;100765.03;;;16.76;44.00
45323;BME280;31382;50.200;8.674;2023-02-20T16:02:31;100744.28;;;16.48;44.56
45323;BME280;31382;50.200;8.674;2023-02-20T16:07:33;100749.47;;;16.30;44.71
45323;BME280;31382;50.200;8.674;2023-02-20T16:12:35;100742.97;;;16.17;44.89
45323;BME280;31382;50.200;8.674;2023-02-20T16:17:37;100738.72;;;16.01;45.11
45323;BME280;31382;50.200;8.674;2023-02-20T16:22:39;100735.31;;;15.86;45.32
45323;BME280;31382;50.200;8.674;2023-02-20T16:27:40;100722.53;;;15.73;45.56
45323;BME280;31382;50.200;8.674;2023-02-20T16:32:42;100733.22;;;15.53;46.00
45323;BME280;31382;50.200;8.674;2023-02-20T16:37:45;100731.31;;;15.47;46.06
45323;BME280;31382;50.200;8.674;2023-02-20T16:42:46;100736.47;;;15.42;46.33
45323;BME280;31382;50.200;8.674;2023-02-20T16:47:52;100733.28;;;15.32;46.63
45323;BME280;31382;50.200;8.674;2023-02-20T16:52:58;100745.75;;;15.26;46.75
45323;BME280;31382;50.200;8.674;2023-02-20T16:58:03;100738.38;;;15.13;46.92
45323;BME280;31382;50.200;8.674;2023-02-20T17:03:04;100761.63;;;15.01;47.18
45323;BME280;31382;50.200;8.674;2023-02-20T17:08:07;100751.53;;;14.95;47.38
45323;BME280;31382;50.200;8.674;2023-02-20T17:13:08;100754.34;;;14.80;47.62
45323;BME280;31382;50.200;8.674;2023-02-20T17:18:10;100754.94;;;14.75;47.59
45323;BME280;31382;50.200;8.674;2023-02-20T17:23:11;100768.56;;;14.67;47.93
45323;BME280;31382;50.200;8.674;2023-02-20T17:28:13;100770.38;;;14.60;47.98
45323;BME280;31382;50.200;8.674;2023-02-20T17:33:16;100779.72;;;14.42;48.50
45323;BME280;31382;50.200;8.674;2023-02-20T17:38:17;100784.84;;;14.37;48.71
45323;BME280;31382;50.200;8.674;2023-02-20T17:43:18;100790.78;;;14.26;49.05
45323;BME280;31382;50.200;8.674;2023-02-20T17:48:20;100794.41;;;14.18;49.28
45323;BME280;31382;50.200;8.674;2023-02-20T17:53:21;100791.25;;;14.15;49.52
45323;BME280;31382;50.200;8.674;2023-02-20T17:58:22;100797.41;;;14.08;49.59
45323;BME280;31382;50.200;8.674;2023-02-20T18:03:24;100804.50;;;13.95;49.95
45323;BME280;31382;50.200;8.674;2023-02-20T18:08:26;100799.72;;;13.82;50.41
45323;BME280;31382;50.200;8.674;2023-02-20T18:13:27;100805.81;;;13.69;50.41
45323;BME280;31382;50.200;8.674;2023-02-20T18:18:29;100811.94;;;13.63;50.81
45323;BME280;31382;50.200;8.674;2023-02-20T18:23:30;100812.03;;;13.55;50.81
45323;BME280;31382;50.200;8.674;2023-02-20T18:28:31;100822.72;;;13.48;50.71
45323;BME280;31382;50.200;8.674;2023-02-20T18:33:33;100816.84;;;13.44;50.84
45323;BME280;31382;50.200;8.674;2023-02-20T18:38:35;100822.78;;;13.40;50.71
45323;BME280;31382;50.200;8.674;2023-02-20T18:43:37;100825.84;;;13.37;50.74
45323;BME280;31382;50.200;8.674;2023-02-20T18:48:40;100833.34;;;13.26;50.84
45323;BME280;31382;50.200;8.674;2023-02-20T18:53:43;100834.31;;;13.10;51.13
45323;BME280;31382;50.200;8.674;2023-02-20T18:58:45;100831.91;;;12.93;51.97
45323;BME280;31382;50.200;8.674;2023-02-20T19:03:47;100824.78;;;12.77;51.86
45323;BME280;31382;50.200;8.674;2023-02-20T19:08:49;100826.88;;;12.66;52.38
45323;BME280;31382;50.200;8.674;2023-02-20T19:13:51;100825.72;;;12.61;51.98
45323;BME280;31382;50.200;8.674;2023-02-20T19:18:52;100822.03;;;12.54;52.76
45323;BME280;31382;50.200;8.674;2023-02-20T19:23:53;100814.81;;;12.54;52.65
45323;BME280;31382;50.200;8.674;2023-02-20T19:28:55;100818.50;;;12.53;52.37
45323;BME280;31382;50.200;8.674;2023-02-20T19:33:56;100817.84;;;12.51;52.57
45323;BME280;31382;50.200;8.674;2023-02-20T19:38:57;100809.63;;;12.44;53.16
45323;BME280;31382;50.200;8.674;2023-02-20T19:43:59;100813.00;;;12.46;52.99
45323;BME280;31382;50.200;8.674;2023-02-20T19:49:00;100815.03;;;12.44;52.92
45323;BME280;31382;50.200;8.674;2023-02-20T19:54:02;100824.16;;;12.35;53.43
45323;BME280;31382;50.200;8.674;2023-02-20T19:59:03;100821.31;;;12.37;53.58
45323;BME280;31382;50.200;8.674;2023-02-20T20:04:05;100823.50;;;12.33;53.87
45323;BME280;31382;50.200;8.674;2023-02-20T20:09:06;100823.38;;;12.26;53.86
45323;BME280;31382;50.200;8.674;2023-02-20T20:14:17;100821.69;;;12.25;54.18
45323;BME280;31382;50.200;8.674;2023-02-20T20:19:20;100818.81;;;12.27;54.14
45323;BME280;31382;50.200;8.674;2023-02-20T20:24:21;100810.38;;;12.30;54.03
45323;BME280;31382;50.200;8.674;2023-02-20T20:29:23;100813.75;;;12.24;54.55
45323;BME280;31382;50.200;8.674;2023-02-20T20:34:24;100824.53;;;12.24;54.18
45323;BME280;31382;50.200;8.674;2023-02-20T20:39:26;100815.78;;;12.22;54.13
45323;BME280;31382;50.200;8.674;2023-02-20T20:44:28;100819.72;;;12.11;54.81
45323;BME280;31382;50.200;8.674;2023-02-20T20:49:29;100814.50;;;12.09;54.67
45323;BME280;31382;50.200;8.674;2023-02-20T20:54:30;100811.31;;;12.06;54.66
45323;BME280;31382;50.200;8.674;2023-02-20T20:59:32;100814.50;;;12.09;54.93
45323;BME280;31382;50.200;8.674;2023-02-20T21:04:33;100815.34;;;12.10;54.77
45323;BME280;31382;50.200;8.674;2023-02-20T21:09:35;100808.13;;;12.02;54.59
45323;BME280;31382;50.200;8.674;2023-02-20T21:14:37;100819.59;;;11.96;54.88
45323;BME280;31382;50.200;8.674;2023-02-20T21:19:40;100819.47;;;11.81;54.96
45323;BME280;31382;50.200;8.674;2023-02-20T21:24:42;100820.66;;;11.70;55.03
45323;BME280;31382;50.200;8.674;2023-02-20T21:29:43;100818.66;;;11.56;55.55
45323;BME280;31382;50.200;8.674;2023-02-20T21:34:44;100831.28;;;11.39;55.65
45323;BME280;31382;50.200;8.674;2023-02-20T21:39:47;100817.69;;;11.16;56.07
45323;BME280;31382;50.200;8.674;2023-02-20T21:44:48;100840.53;;;10.87;56.44
45323;BME280;31382;50.200;8.674;2023-02-20T21:49:50;100824.75;;;10.84;56.79
45323;BME280;31382;50.200;8.674;2023-02-20T21:54:52;100812.91;;;10.52;57.53
45323;BME280;31382;50.200;8.674;2023-02-20T21:59:54;100827.84;;;10.39;57.65
45323;BME280;31382;50.200;8.674;2023-02-20T22:04:55;100819.19;;;10.27;57.71
45323;BME280;31382;50.200;8.674;2023-02-20T22:09:57;100819.47;;;10.16;58.10
45323;BME280;31382;50.200;8.674;2023-02-20T22:15:17;100819.22;;;10.01;58.29
45323;BME280;31382;50.200;8.674;2023-02-20T22:20:37;100816.16;;;9.87;58.50
45323;BME280;31382;50.200;8.674;2023-02-20T22:25:57;100828.16;;;9.75;58.63
45323;BME280;31382;50.200;8.674;2023-02-20T22:31:17;100825.53;;;9.57;58.98
45323;BME280;31382;50.200;8.674;2023-02-20T22:36:37;100820.13;;;9.49;59.07
45323;BME280;31382;50.200;8.674;2023-02-20T22:41:57;100820.53;;;9.36;59.31
45323;BME280;31382;50.200;8.674;2023-02-20T22:47:23;100829.91;;;9.14;59.45
45323;BME280;31382;50.200;8.674;2023-02-20T22:52:43;100824.09;;;9.01;60.10
45323;BME280;31382;50.200;8.674;2023-02-20T22:58:03;100827.41;;;8.95;59.95
45323;BME280;31382;50.200;8.674;2023-02-20T23:03:23;100826.31;;;8.87;60.07
45323;BME280;31382;50.200;8.674;2023-02-20T23:08:43;100832.16;;;8.83;60.54
45323;BME280;31382;50.200;8.674;2023-02-20T23:14:02;100824.88;;;8.75;60.47
45323;BME280;31382;50.200;8.674;2023-02-20T23:19:22;100822.63;;;8.70;60.90
45323;BME280;31382;50.200;8.674;2023-02-20T23:24:42;100828.91;;;8.61;61.22
45323;BME280;31382;50.200;8.674;2023-02-20T23:30:03;100826.53;;;8.58;61.15
45323;BME280;31382;50.200;8.674;2023-02-20T23:35:23;100828.81;;;8.53;61.77
45323;BME280;31382;50.200;8.674;2023-02-20T23:40:43;100828.44;;;8.48;61.79
45323;BME280;31382;50.200;8.674;2023-02-20T23:46:03;100834.28;;;8.33;62.06
45323;BME280;31382;50.200;8.674;2023-02-20T23:51:24;100828.38;;;8.30;62.74
45323;BME280;31382;50.200;8.674;2023-02-20T23:56:43;100823.75;;;8.22;62.15
